Time;durP1;ratioP1;P1;durP2;ratioP2;P2;SDS_P1;SDS_P2;PMS_P1;PMS_P2;Temp;Humidity;BMP_temperature;BMP_pressure;BME280_temperature;BME280_humidity;BME280_pressure;Samples;Min_cycle;Max_cycle;Signal;HPM_P1;HPM_P2
2023/08/06 00:01:31;;;;;;;0.50;0.50;;;16.70;99.90;;;;;;5133268;28;20027;-71
2023/08/06 00:03:59;;;;;;;0.47;0.47;;;16.70;99.90;;;;;;5132796;28;20034;-71
2023/08/06 00:06:24;;;;;;;0.43;0.43;;;16.70;99.90;;;;;;5137256;27;20026;-70
2023/08/06 00:08:50;;;;;;;0.50;0.50;;;16.60;99.90;;;;;;5118216;27;20118;-71
2023/08/06 00:11:15;;;;;;;0.40;0.40;;;16.60;99.90;;;;;;5136915;27;20076;-71
2023/08/06 00:13:41;;;;;;;1.10;0.50;;;16.60;99.90;;;;;;5136516;27;20059;-71
2023/08/06 00:16:13;;;;;;;0.40;0.40;;;16.60;99.90;;;;;;5137272;27;20027;-71
2023/08/06 00:18:39;;;;;;;2.45;0.65;;;16.60;99.90;;;;;;5118026;27;20045;-71
2023/08/06 00:21:05;;;;;;;0.93;0.40;;;16.60;99.90;;;;;;5136760;27;20027;-71
2023/08/06 00:23:31;;;;;;;0.45;0.45;;;16.60;99.90;;;;;;5136691;27;20064;-71
2023/08/06 00:25:56;;;;;;;0.85;0.40;;;16.60;99.90;;;;;;5136300;27;20102;-71
2023/08/06 00:28:22;;;;;;;0.50;0.50;;;16.50;99.90;;;;;;5123109;27;20114;-70
2023/08/06 00:30:56;;;;;;;0.35;0.35;;;16.50;99.90;;;;;;5115605;28;20080;-70
2023/08/06 00:33:24;;;;;;;0.38;0.38;;;16.50;99.90;;;;;;5116002;28;20032;-70
2023/08/06 00:35:50;;;;;;;0.40;0.40;;;16.50;99.90;;;;;;5115570;28;20031;-70
2023/08/06 00:38:16;;;;;;;0.50;0.50;;;16.50;99.90;;;;;;5115946;28;20035;-70
2023/08/06 00:40:41;;;;;;;0.55;0.50;;;16.50;99.90;;;;;;5115163;28;20031;-70
2023/08/06 00:43:07;;;;;;;0.50;0.50;;;16.50;99.90;;;;;;5115816;28;20375;-70
2023/08/06 00:45:35;;;;;;;0.50;0.50;;;16.50;99.90;;;;;;5115746;28;20031;-70
2023/08/06 00:48:03;;;;;;;0.32;0.30;;;16.50;99.90;;;;;;5115350;28;20026;-70
2023/08/06 00:50:28;;;;;;;0.40;0.40;;;16.50;99.90;;;;;;5115115;28;20376;-70
2023/08/06 00:52:55;;;;;;;0.73;0.40;;;16.40;99.90;;;;;;5115204;28;20053;-70
2023/08/06 00:55:20;;;;;;;0.40;0.40;;;16.40;99.90;;;;;;5115442;28;20068;-70
2023/08/06 00:57:46;;;;;;;1.38;0.30;;;16.40;99.90;;;;;;5131221;27;20035;-70
2023/08/06 01:00:12;;;;;;;0.40;0.40;;;16.40;99.90;;;;;;5136223;27;20042;-70
2023/08/06 01:02:38;;;;;;;0.52;0.52;;;16.40;99.90;;;;;;5135734;27;20424;-70
2023/08/06 01:05:04;;;;;;;0.90;0.60;;;16.40;99.90;;;;;;5135825;27;20043;-69
2023/08/06 01:07:41;;;;;;;0.50;0.50;;;16.40;99.90;;;;;;5117667;27;20378;-70
2023/08/06 01:10:26;;;;;;;0.77;0.50;;;16.30;99.90;;;;;;5135882;27;20031;-71
2023/08/06 01:13:18;;;;;;;0.47;0.47;;;16.40;99.90;;;;;;5135343;27;20087;-71
2023/08/06 01:15:49;;;;;;;1.23;0.60;;;16.30;99.90;;;;;;5135355;27;20023;-70
2023/08/06 01:18:16;;;;;;;0.40;0.40;;;16.30;99.90;;;;;;5135413;27;20028;-71
2023/08/06 01:20:42;;;;;;;0.80;0.50;;;16.30;99.90;;;;;;5135338;27;20436;-74
2023/08/06 01:23:08;;;;;;;0.93;0.52;;;16.30;99.90;;;;;;5135709;27;20027;-71
2023/08/06 01:25:56;;;;;;;1.85;0.50;;;16.20;99.90;;;;;;5135205;27;20023;-71
2023/08/06 01:28:44;;;;;;;0.77;0.40;;;16.20;99.90;;;;;;5135557;27;20027;-71
2023/08/06 01:31:21;;;;;;;0.57;0.30;;;16.20;99.90;;;;;;5135488;27;20030;-71
2023/08/06 01:33:48;;;;;;;1.15;0.40;;;16.20;99.90;;;;;;5135102;27;20356;-71
2023/08/06 01:36:18;;;;;;;0.40;0.40;;;16.20;99.90;;;;;;5117609;27;20030;-70
2023/08/06 01:38:44;;;;;;;0.40;0.40;;;16.20;99.90;;;;;;5134826;27;20030;-73
2023/08/06 01:41:09;;;;;;;0.40;0.40;;;16.20;99.90;;;;;;5135267;27;20459;-70
2023/08/06 01:43:35;;;;;;;0.30;0.30;;;16.20;99.90;;;;;;5135189;27;20072;-71
2023/08/06 01:46:00;;;;;;;1.02;0.35;;;16.20;99.90;;;;;;5134273;27;20073;-71
2023/08/06 01:48:26;;;;;;;0.40;0.40;;;16.10;99.90;;;;;;5134902;27;20103;-71
2023/08/06 01:50:52;;;;;;;1.25;1.15;;;16.10;99.90;;;;;;5134580;27;20038;-71
2023/08/06 01:53:17;;;;;;;0.95;0.63;;;16.10;99.90;;;;;;5135164;27;20071;-71
2023/08/06 01:55:50;;;;;;;0.50;0.50;;;16.10;99.90;;;;;;5135163;27;20030;-71
2023/08/06 01:58:16;;;;;;;0.50;0.50;;;16.10;99.90;;;;;;5135021;27;20019;-71
2023/08/06 02:00:41;;;;;;;2.17;0.60;;;16.10;99.90;;;;;;5134843;27;20429;-71
2023/08/06 02:03:07;;;;;;;0.50;0.50;;;16.10;99.90;;;;;;5134355;27;20106;-71
2023/08/06 02:05:33;;;;;;;0.88;0.60;;;16.10;99.90;;;;;;5134805;27;20019;-71
2023/08/06 02:07:58;;;;;;;0.60;0.55;;;16.10;99.90;;;;;;5134306;27;20027;-71
2023/08/06 02:10:24;;;;;;;0.90;0.60;;;16.00;99.90;;;;;;5134600;27;20114;-71
2023/08/06 02:12:49;;;;;;;0.40;0.40;;;16.00;99.90;;;;;;5115820;27;20106;-71
2023/08/06 02:15:15;;;;;;;0.82;0.70;;;16.00;99.90;;;;;;5134180;27;20467;-71
2023/08/06 02:17:41;;;;;;;1.10;0.70;;;16.00;99.90;;;;;;5134346;27;20023;-71
2023/08/06 02:20:07;;;;;;;0.70;0.70;;;16.00;99.90;;;;;;5134118;27;20084;-71
2023/08/06 02:22:33;;;;;;;0.70;0.70;;;16.00;99.90;;;;;;5134588;27;20030;-71
2023/08/06 02:24:59;;;;;;;0.82;0.70;;;16.00;99.90;;;;;;5134040;27;20054;-71
2023/08/06 02:27:24;;;;;;;1.17;0.80;;;16.00;99.90;;;;;;5134247;27;20058;-71
2023/08/06 02:29:50;;;;;;;0.85;0.73;;;16.00;99.90;;;;;;5133050;27;20028;-71
2023/08/06 02:32:16;;;;;;;0.63;0.60;;;16.00;99.90;;;;;;5114955;27;20031;-71
2023/08/06 02:34:41;;;;;;;0.57;0.57;;;15.90;99.90;;;;;;5131406;27;20386;-71
2023/08/06 02:37:07;;;;;;;1.05;0.70;;;15.90;99.90;;;;;;5133518;27;20479;-71
2023/08/06 02:39:34;;;;;;;1.50;0.90;;;15.90;99.90;;;;;;5134151;27;20486;-71
2023/08/06 02:41:59;;;;;;;0.90;0.80;;;15.90;99.90;;;;;;5133643;27;20031;-71
2023/08/06 02:44:28;;;;;;;0.80;0.80;;;15.90;99.90;;;;;;5133814;27;20355;-71
2023/08/06 02:46:54;;;;;;;1.15;1.00;;;15.90;99.90;;;;;;5133650;27;20019;-71
2023/08/06 02:49:19;;;;;;;3.33;0.93;;;15.90;99.90;;;;;;5133716;27;20380;-71
2023/08/06 02:51:45;;;;;;;0.75;0.75;;;15.90;99.90;;;;;;5133949;27;20027;-71
2023/08/06 02:54:11;;;;;;;0.80;0.80;;;15.90;99.90;;;;;;5133217;27;20223;-71
2023/08/06 02:56:37;;;;;;;1.15;1.00;;;15.90;99.90;;;;;;5133918;27;20031;-71
2023/08/06 02:59:02;;;;;;;1.23;0.82;;;15.80;99.90;;;;;;5133463;27;20038;-71
2023/08/06 03:01:28;;;;;;;1.35;1.00;;;15.90;99.90;;;;;;5133838;27;20027;-71
2023/08/06 03:03:54;;;;;;;1.00;0.95;;;15.90;99.90;;;;;;5133459;27;20041;-71
2023/08/06 03:06:19;;;;;;;1.00;1.00;;;15.90;99.90;;;;;;5133547;27;20031;-71
2023/08/06 03:08:45;;;;;;;2.28;1.40;;;15.90;99.90;;;;;;5134071;27;20019;-71
2023/08/06 03:11:11;;;;;;;1.05;1.00;;;15.90;99.90;;;;;;5132970;27;20031;-71
2023/08/06 03:13:36;;;;;;;1.40;0.90;;;15.90;99.90;;;;;;5133711;28;20023;-71
2023/08/06 03:16:02;;;;;;;5.10;1.42;;;15.90;99.90;;;;;;5133239;28;20357;-71
2023/08/06 03:18:28;;;;;;;1.98;0.95;;;15.90;99.90;;;;;;5133641;28;20031;-71
2023/08/06 03:20:54;;;;;;;1.20;1.10;;;15.90;99.90;;;;;;5133268;28;20039;-71
2023/08/06 03:23:20;;;;;;;3.55;0.93;;;16.00;99.90;;;;;;5133788;28;20067;-71
2023/08/06 03:25:46;;;;;;;1.15;1.00;;;16.00;99.90;;;;;;5133722;28;20511;-71
2023/08/06 03:28:11;;;;;;;1.60;1.13;;;16.00;99.90;;;;;;5133094;28;20027;-71
2023/08/06 03:30:37;;;;;;;1.30;1.20;;;16.00;99.90;;;;;;5133414;28;20067;-71
2023/08/06 03:33:03;;;;;;;1.30;1.20;;;16.00;99.90;;;;;;5132874;28;20114;-71
2023/08/06 03:35:28;;;;;;;1.20;1.10;;;16.10;99.90;;;;;;5133511;28;20031;-69
2023/08/06 03:37:54;;;;;;;1.20;1.10;;;16.10;99.90;;;;;;5132790;28;20026;-71
2023/08/06 03:40:20;;;;;;;1.85;1.48;;;16.10;99.90;;;;;;5135680;27;20412;-70
2023/08/06 03:42:45;;;;;;;2.47;1.27;;;16.10;99.90;;;;;;5137466;27;20460;-70
2023/08/06 03:45:11;;;;;;;2.05;1.20;;;16.10;99.90;;;;;;5137178;27;20031;-70
2023/08/06 03:47:37;;;;;;;3.45;1.35;;;16.20;99.90;;;;;;5137348;27;20479;-70
2023/08/06 03:50:02;;;;;;;1.38;1.27;;;16.20;99.90;;;;;;5118115;27;20047;-70
2023/08/06 03:52:28;;;;;;;1.55;1.40;;;16.20;99.90;;;;;;5136895;27;20027;-71
2023/08/06 03:54:54;;;;;;;2.08;1.88;;;16.20;99.90;;;;;;5136867;27;20421;-71
2023/08/06 03:57:19;;;;;;;2.03;1.67;;;16.20;99.90;;;;;;5137250;27;20020;-70
2023/08/06 03:59:45;;;;;;;2.05;1.70;;;16.20;99.90;;;;;;5137135;27;20030;-70
2023/08/06 04:02:10;;;;;;;2.20;1.50;;;16.20;99.90;;;;;;5136529;27;20027;-70
2023/08/06 04:04:36;;;;;;;1.70;1.60;;;16.20;99.90;;;;;;5137447;27;20027;-70
2023/08/06 04:07:02;;;;;;;1.45;1.33;;;16.30;99.90;;;;;;5136594;27;20114;-70
2023/08/06 04:09:29;;;;;;;1.65;1.40;;;16.30;99.90;;;;;;5137004;27;20019;-70
2023/08/06 04:11:55;;;;;;;2.05;1.40;;;16.30;99.90;;;;;;5136504;27;20029;-74
2023/08/06 04:14:21;;;;;;;1.65;1.55;;;16.30;99.90;;;;;;5136857;27;20468;-70
2023/08/06 04:16:47;;;;;;;4.20;1.33;;;16.30;99.90;;;;;;5136937;27;20192;-70
2023/08/06 04:19:12;;;;;;;2.05;1.50;;;16.30;99.90;;;;;;5136432;27;20024;-70
2023/08/06 04:21:38;;;;;;;1.70;1.60;;;16.30;99.90;;;;;;5136721;27;20058;-70
2023/08/06 04:24:03;;;;;;;1.80;1.52;;;16.40;99.90;;;;;;5136259;27;20035;-70
2023/08/06 04:26:29;;;;;;;1.65;1.50;;;16.40;99.90;;;;;;5136761;27;20027;-70
2023/08/06 04:28:55;;;;;;;1.75;1.50;;;16.30;99.90;;;;;;5114771;27;20390;-70
2023/08/06 04:31:21;;;;;;;1.67;1.35;;;16.40;99.90;;;;;;5117897;27;20062;-70
2023/08/06 04:33:47;;;;;;;2.55;1.45;;;16.40;99.90;;;;;;5136555;27;20117;-70
2023/08/06 04:36:12;;;;;;;2.88;1.75;;;16.40;99.90;;;;;;5117808;27;20415;-70
2023/08/06 04:38:38;;;;;;;1.58;1.48;;;16.40;99.90;;;;;;5136236;27;20075;-70
2023/08/06 04:41:04;;;;;;;1.42;1.33;;;16.40;99.90;;;;;;5136007;27;20052;-71
2023/08/06 04:43:29;;;;;;;2.33;1.60;;;16.40;99.90;;;;;;5136458;27;20023;-70
2023/08/06 04:45:56;;;;;;;2.70;1.58;;;16.40;99.90;;;;;;5136325;27;20027;-70
2023/08/06 04:48:22;;;;;;;3.35;1.70;;;16.40;99.90;;;;;;5136044;27;20035;-70
2023/08/06 04:50:49;;;;;;;3.08;1.85;;;16.40;99.90;;;;;;5135553;27;20035;-71
2023/08/06 04:53:15;;;;;;;1.55;1.40;;;16.40;99.90;;;;;;5135554;27;20027;-70
2023/08/06 04:55:42;;;;;;;1.80;1.60;;;16.40;99.90;;;;;;5135887;27;20031;-70
2023/08/06 04:58:09;;;;;;;1.85;1.60;;;16.40;99.90;;;;;;5135732;27;20076;-71
2023/08/06 05:00:35;;;;;;;2.00;1.63;;;16.40;99.90;;;;;;5135886;27;20467;-70
2023/08/06 05:03:01;;;;;;;2.67;1.52;;;16.40;99.90;;;;;;5135636;27;20048;-70
2023/08/06 05:05:27;;;;;;;3.20;1.50;;;16.40;99.90;;;;;;5136066;27;20027;-70
2023/08/06 05:07:55;;;;;;;2.22;1.50;;;16.50;99.90;;;;;;5136258;27;20031;-70
2023/08/06 05:10:21;;;;;;;2.25;1.50;;;16.40;99.90;;;;;;5135434;27;20023;-70
2023/08/06 05:12:46;;;;;;;4.57;1.75;;;16.50;99.90;;;;;;5135521;27;20513;-70
2023/08/06 05:15:12;;;;;;;1.63;1.50;;;16.40;99.90;;;;;;5116685;27;20045;-70
2023/08/06 05:17:37;;;;;;;2.58;1.80;;;16.50;99.90;;;;;;5135421;27;20019;-70
2023/08/06 05:20:04;;;;;;;1.88;1.70;;;16.50;99.90;;;;;;5135287;27;20027;-70
2023/08/06 05:22:29;;;;;;;2.72;1.38;;;16.50;99.90;;;;;;5135552;27;20039;-71
2023/08/06 05:24:55;;;;;;;2.35;1.70;;;16.50;99.90;;;;;;5117202;27;20030;-70
2023/08/06 05:27:20;;;;;;;1.83;1.50;;;16.50;99.90;;;;;;5135160;27;20027;-70
2023/08/06 05:29:47;;;;;;;2.30;1.50;;;16.50;99.90;;;;;;5135412;27;20087;-71
2023/08/06 05:32:13;;;;;;;1.58;1.40;;;16.50;99.90;;;;;;5134606;27;20038;-70
2023/08/06 05:34:38;;;;;;;4.28;1.65;;;16.50;99.90;;;;;;5135057;27;20467;-70
2023/08/06 05:37:05;;;;;;;2.65;1.70;;;16.50;99.90;;;;;;5134695;27;20055;-71
2023/08/06 05:39:30;;;;;;;3.45;1.63;;;16.50;99.90;;;;;;5135364;27;20100;-70
2023/08/06 05:41:56;;;;;;;1.60;1.50;;;16.50;99.90;;;;;;5135289;27;20471;-70
2023/08/06 05:44:23;;;;;;;2.17;1.50;;;16.50;99.90;;;;;;5134732;27;20368;-71
2023/08/06 05:46:49;;;;;;;4.35;1.38;;;16.50;99.90;;;;;;5135438;27;20035;-70
2023/08/06 05:49:15;;;;;;;5.40;1.90;;;16.50;99.90;;;;;;5115820;27;20051;-70
2023/08/06 05:51:41;;;;;;;1.98;1.60;;;16.50;99.90;;;;;;5135109;27;20348;-70
2023/08/06 05:54:07;;;;;;;1.52;1.15;;;16.50;99.90;;;;;;5134124;27;20046;-70
2023/08/06 05:56:32;;;;;;;1.50;1.40;;;16.50;99.90;;;;;;5134860;27;20058;-70
2023/08/06 05:58:58;;;;;;;2.58;1.60;;;16.50;99.90;;;;;;5116503;27;20024;-70
2023/08/06 06:01:24;;;;;;;1.40;1.30;;;16.60;99.90;;;;;;5116063;27;20027;-70
2023/08/06 06:03:49;;;;;;;2.40;1.63;;;16.60;99.90;;;;;;5134783;27;20459;-70
2023/08/06 06:06:16;;;;;;;3.58;1.40;;;16.60;99.90;;;;;;5134228;27;20426;-70
2023/08/06 06:08:42;;;;;;;1.40;1.30;;;16.60;99.90;;;;;;5116317;27;20344;-70
2023/08/06 06:11:07;;;;;;;1.80;1.33;;;16.60;99.90;;;;;;5134087;27;20034;-71
2023/08/06 06:13:33;;;;;;;1.48;1.27;;;16.60;99.90;;;;;;5134501;27;20503;-70
2023/08/06 06:15:58;;;;;;;2.65;1.60;;;16.70;99.90;;;;;;5134182;27;20467;-71
2023/08/06 06:18:24;;;;;;;2.20;1.48;;;16.70;99.90;;;;;;5133880;27;20023;-70
2023/08/06 06:20:50;;;;;;;1.50;1.40;;;16.70;99.90;;;;;;5134140;27;20046;-70
2023/08/06 06:23:15;;;;;;;2.20;1.60;;;16.70;99.90;;;;;;5130833;27;20015;-70
2023/08/06 06:25:48;;;;;;;1.50;1.38;;;16.70;99.90;;;;;;5113869;28;20024;-70
2023/08/06 06:28:14;;;;;;;1.45;1.35;;;16.80;99.90;;;;;;5113532;28;20028;-71
2023/08/06 06:30:42;;;;;;;1.60;1.50;;;16.80;99.90;;;;;;5113795;28;20033;-70
2023/08/06 06:33:07;;;;;;;1.67;1.58;;;16.80;99.90;;;;;;5094929;28;20077;-71
2023/08/06 06:35:33;;;;;;;1.50;1.40;;;16.80;99.90;;;;;;5113638;28;20027;-70
2023/08/06 06:37:59;;;;;;;1.52;1.42;;;16.80;99.90;;;;;;5113522;28;20028;-70
2023/08/06 06:40:26;;;;;;;2.20;1.48;;;16.90;99.90;;;;;;5113033;28;20031;-70
2023/08/06 06:42:51;;;;;;;1.55;1.45;;;16.90;99.90;;;;;;5095201;28;20031;-71
2023/08/06 06:45:17;;;;;;;2.58;1.38;;;16.90;99.90;;;;;;5112970;28;20389;-72
2023/08/06 06:47:42;;;;;;;2.92;1.73;;;16.90;99.90;;;;;;5113416;28;20073;-70
2023/08/06 06:50:09;;;;;;;1.95;1.60;;;17.00;99.90;;;;;;5112904;28;20172;-71
2023/08/06 06:52:34;;;;;;;2.03;1.50;;;17.00;99.90;;;;;;5113393;28;20024;-71
2023/08/06 06:55:00;;;;;;;1.38;1.27;;;17.00;99.90;;;;;;5113050;28;20061;-71
2023/08/06 06:57:26;;;;;;;2.13;1.70;;;17.00;99.90;;;;;;5119476;27;20666;-71
2023/08/06 06:59:51;;;;;;;1.52;1.40;;;17.10;99.90;;;;;;5133684;27;20068;-71
2023/08/06 07:02:17;;;;;;;2.00;1.27;;;17.10;99.90;;;;;;5133357;27;20391;-71
2023/08/06 07:04:42;;;;;;;2.30;1.65;;;17.10;99.90;;;;;;5133412;27;20027;-71
2023/08/06 07:07:08;;;;;;;2.38;1.63;;;17.10;99.90;;;;;;5133365;27;20490;-71
2023/08/06 07:09:34;;;;;;;1.60;1.50;;;17.20;99.90;;;;;;5115299;28;20118;-71
2023/08/06 07:11:59;;;;;;;1.83;1.67;;;17.10;99.90;;;;;;5133601;27;20519;-71
2023/08/06 07:14:26;;;;;;;2.33;1.70;;;17.10;99.90;;;;;;5132353;27;20023;-71
2023/08/06 07:16:51;;;;;;;1.80;1.40;;;17.10;99.90;;;;;;5133699;28;20068;-71
2023/08/06 07:19:17;;;;;;;1.85;1.40;;;17.10;99.90;;;;;;5133467;28;20027;-71
2023/08/06 07:21:43;;;;;;;1.73;1.63;;;17.20;99.90;;;;;;5115061;28;20031;-71
2023/08/06 07:24:09;;;;;;;2.05;1.48;;;17.10;99.90;;;;;;5133108;28;20033;-73
2023/08/06 07:26:35;;;;;;;3.00;1.52;;;17.10;99.90;;;;;;5133556;28;20030;-71
2023/08/06 07:29:00;;;;;;;2.17;1.30;;;17.20;99.90;;;;;;5114886;28;20068;-71
2023/08/06 07:31:27;;;;;;;2.22;1.38;;;17.20;99.90;;;;;;5132937;28;20111;-71
2023/08/06 07:33:52;;;;;;;1.58;1.27;;;17.20;99.90;;;;;;5133728;28;20037;-71
2023/08/06 07:36:18;;;;;;;1.38;1.27;;;17.20;99.90;;;;;;5133022;28;20142;-71
2023/08/06 07:38:43;;;;;;;1.40;1.30;;;17.30;99.90;;;;;;5115012;28;20023;-71
2023/08/06 07:41:09;;;;;;;1.90;1.63;;;17.30;99.90;;;;;;5133121;28;20027;-71
2023/08/06 07:43:35;;;;;;;1.80;1.67;;;17.30;99.90;;;;;;5133504;28;20023;-71
2023/08/06 07:46:01;;;;;;;1.60;1.50;;;17.40;99.90;;;;;;5133410;28;20379;-71
2023/08/06 07:48:27;;;;;;;1.63;1.52;;;17.40;99.90;;;;;;5132553;27;20073;-71
2023/08/06 07:50:57;;;;;;;1.67;1.33;;;17.50;99.90;;;;;;5133545;28;20449;-71
2023/08/06 07:53:26;;;;;;;1.50;1.40;;;17.50;99.90;;;;;;5132795;28;20041;-71
2023/08/06 07:55:53;;;;;;;2.72;1.50;;;17.50;99.90;;;;;;5132522;28;20526;-71
2023/08/06 07:58:19;;;;;;;1.83;1.63;;;17.50;99.90;;;;;;5132904;28;20460;-71
2023/08/06 08:00:45;;;;;;;2.25;1.45;;;17.50;99.90;;;;;;5133072;28;20053;-71
2023/08/06 08:03:14;;;;;;;1.75;1.60;;;17.50;99.90;;;;;;5133083;28;20026;-71
2023/08/06 08:05:40;;;;;;;3.33;1.77;;;17.50;99.90;;;;;;5132889;28;20023;-71
2023/08/06 08:08:06;;;;;;;1.70;1.60;;;17.50;99.90;;;;;;5114814;28;20027;-71
2023/08/06 08:10:33;;;;;;;1.70;1.60;;;17.40;99.90;;;;;;5132863;28;20164;-71
2023/08/06 08:12:58;;;;;;;2.08;1.23;;;17.40;99.90;;;;;;5133125;28;20035;-71
2023/08/06 08:15:28;;;;;;;2.33;1.58;;;17.40;99.90;;;;;;5132450;28;20462;-71
2023/08/06 08:17:53;;;;;;;1.77;1.60;;;17.40;99.90;;;;;;5114583;28;20478;-71
2023/08/06 08:20:19;;;;;;;1.63;1.50;;;17.40;99.90;;;;;;5132675;28;20028;-71
2023/08/06 08:22:44;;;;;;;1.88;1.70;;;17.40;99.90;;;;;;5133038;28;20028;-71
2023/08/06 08:25:10;;;;;;;3.15;1.50;;;17.30;99.90;;;;;;5119259;28;20020;-71
2023/08/06 08:27:36;;;;;;;1.80;1.52;;;17.30;99.90;;;;;;5096131;28;20429;-71
2023/08/06 08:30:02;;;;;;;2.53;1.63;;;17.30;99.90;;;;;;5116363;28;20409;-71
2023/08/06 08:32:27;;;;;;;1.73;1.63;;;17.30;99.90;;;;;;5115605;28;20114;-71
2023/08/06 08:34:53;;;;;;;1.63;1.52;;;17.30;99.90;;;;;;5116318;28;20062;-71
2023/08/06 08:37:19;;;;;;;1.63;1.52;;;17.30;99.90;;;;;;5115355;28;20554;-71
2023/08/06 08:39:44;;;;;;;1.95;1.75;;;17.30;99.90;;;;;;5115813;28;20027;-71
2023/08/06 08:42:10;;;;;;;2.05;1.50;;;17.30;99.90;;;;;;5115512;28;20023;-71
2023/08/06 08:44:39;;;;;;;1.60;1.50;;;17.30;99.90;;;;;;5115816;28;20028;-71
2023/08/06 08:47:06;;;;;;;1.60;1.50;;;17.30;99.90;;;;;;5097446;28;20115;-71
2023/08/06 08:49:32;;;;;;;1.85;1.70;;;17.30;99.90;;;;;;5115185;28;20051;-71
2023/08/06 08:52:01;;;;;;;1.70;1.60;;;17.30;99.90;;;;;;5097486;28;20114;-71
2023/08/06 08:54:28;;;;;;;2.60;1.88;;;17.30;99.90;;;;;;5117789;27;20182;-71
2023/08/06 08:56:55;;;;;;;2.88;2.13;;;17.30;99.90;;;;;;5136519;27;20019;-71
2023/08/06 08:59:21;;;;;;;2.45;1.88;;;17.30;99.90;;;;;;5135652;27;20026;-71
2023/08/06 09:01:51;;;;;;;2.38;1.80;;;17.40;99.90;;;;;;5135837;27;20027;-71
2023/08/06 09:04:18;;;;;;;2.33;1.83;;;17.40;99.90;;;;;;5135597;27;20097;-71
2023/08/06 09:06:47;;;;;;;3.53;1.80;;;17.40;99.90;;;;;;5136046;27;20027;-71
2023/08/06 09:09:16;;;;;;;2.00;1.80;;;17.40;99.90;;;;;;5135823;27;20027;-71
2023/08/06 09:11:49;;;;;;;2.33;1.77;;;17.40;99.90;;;;;;5135984;27;20057;-71
2023/08/06 09:14:15;;;;;;;2.65;2.25;;;17.40;99.90;;;;;;5135664;27;20034;-71
2023/08/06 09:16:41;;;;;;;3.08;2.08;;;17.40;99.90;;;;;;5135326;27;20126;-71
2023/08/06 09:19:12;;;;;;;4.47;2.20;;;17.40;99.90;;;;;;5135717;27;20467;-71
2023/08/06 09:21:41;;;;;;;2.33;2.13;;;17.40;99.90;;;;;;5135292;27;20035;-71
2023/08/06 09:24:16;;;;;;;2.75;2.30;;;17.40;99.90;;;;;;5135304;27;20455;-71
2023/08/06 09:26:43;;;;;;;2.80;2.13;;;17.40;99.90;;;;;;5134778;27;20475;-71
2023/08/06 09:29:14;;;;;;;2.70;2.50;;;17.40;99.90;;;;;;5135536;27;20027;-71
2023/08/06 09:31:45;;;;;;;4.35;2.25;;;17.30;99.90;;;;;;5134919;27;20027;-71
2023/08/06 09:34:31;;;;;;;3.55;2.65;;;17.30;99.90;;;;;;5135247;27;20122;-71
2023/08/06 09:36:57;;;;;;;3.33;2.17;;;17.30;99.90;;;;;;5116114;27;20058;-71
2023/08/06 09:39:28;;;;;;;3.58;2.80;;;17.30;99.90;;;;;;5134771;27;20455;-71
2023/08/06 09:41:57;;;;;;;;;;;17.30;99.90;;;;;;5135673;27;20023;-71
2023/08/06 09:44:23;;;;;;;3.28;2.67;;;17.30;99.90;;;;;;5134574;27;19904;-71
2023/08/06 09:46:57;;;;;;;4.20;2.65;;;17.30;99.90;;;;;;5135115;27;20027;-71
2023/08/06 09:49:27;;;;;;;3.15;2.85;;;17.30;99.90;;;;;;5134710;27;20051;-71
2023/08/06 09:51:55;;;;;;;3.00;2.70;;;17.30;99.90;;;;;;5134687;27;20027;-71
2023/08/06 09:54:23;;;;;;;2.97;2.45;;;17.30;99.90;;;;;;5134557;27;20244;-71
2023/08/06 09:56:48;;;;;;;3.92;3.50;;;17.20;99.90;;;;;;5134950;27;20106;-71
2023/08/06 09:59:15;;;;;;;3.47;2.60;;;17.20;99.90;;;;;;5134540;27;20054;-71
2023/08/06 10:01:41;;;;;;;3.65;2.60;;;17.20;99.90;;;;;;5134420;27;20027;-71
2023/08/06 10:04:08;;;;;;;2.75;1.92;;;17.20;99.90;;;;;;5134548;27;20027;-71
2023/08/06 10:06:38;;;;;;;2.20;2.00;;;17.30;99.90;;;;;;5134346;27;20027;-71
2023/08/06 10:09:06;;;;;;;2.58;1.90;;;17.20;99.90;;;;;;5134464;27;20027;-71
2023/08/06 10:11:32;;;;;;;4.47;1.98;;;17.30;99.90;;;;;;5134097;27;20106;-71
2023/08/06 10:14:24;;;;;;;4.20;2.38;;;17.30;99.90;;;;;;5134520;27;20539;-71
2023/08/06 10:16:51;;;;;;;2.60;2.22;;;17.30;99.90;;;;;;5131062;27;20019;-71
2023/08/06 10:19:17;;;;;;;3.92;2.25;;;17.40;99.90;;;;;;5134509;27;20084;-71
2023/08/06 10:22:10;;;;;;;4.38;2.47;;;17.40;99.90;;;;;;5134068;27;20029;-71
2023/08/06 10:24:55;;;;;;;2.40;2.20;;;17.50;99.90;;;;;;5133849;27;20030;-71
2023/08/06 10:27:21;;;;;;;3.15;2.30;;;17.50;99.90;;;;;;5115575;27;20114;-71
2023/08/06 10:29:47;;;;;;;3.72;2.20;;;17.50;99.90;;;;;;5134547;27;20038;-71
2023/08/06 10:32:13;;;;;;;3.10;2.40;;;17.60;99.90;;;;;;5134075;27;20035;-71
2023/08/06 10:34:57;;;;;;;3.13;2.35;;;17.60;99.90;;;;;;5133831;27;20023;-71
2023/08/06 10:37:23;;;;;;;3.05;2.13;;;17.60;99.90;;;;;;5133817;27;20106;-72
2023/08/06 10:39:50;;;;;;;3.00;2.50;;;17.70;99.90;;;;;;5134056;27;20118;-71
2023/08/06 10:42:21;;;;;;;2.65;2.22;;;17.70;99.90;;;;;;5134044;27;20046;-71
2023/08/06 10:45:15;;;;;;;3.50;2.40;;;17.80;99.90;;;;;;5133656;27;20035;-71
2023/08/06 10:47:42;;;;;;;3.08;2.25;;;17.80;99.90;;;;;;5115271;27;20031;-71
2023/08/06 10:50:17;;;;;;;4.20;2.35;;;17.90;99.90;;;;;;5133273;27;20092;-71
2023/08/06 10:52:44;;;;;;;5.18;2.40;;;17.90;99.90;;;;;;5133281;27;20034;-71
2023/08/06 10:55:10;;;;;;;2.92;2.40;;;17.90;99.90;;;;;;5133861;27;20035;-70
2023/08/06 10:57:36;;;;;;;5.00;2.47;;;18.00;99.90;;;;;;5133287;27;20028;-71
2023/08/06 11:00:04;;;;;;;3.10;2.40;;;18.00;99.90;;;;;;5133929;27;20062;-71
2023/08/06 11:02:33;;;;;;;3.20;2.65;;;18.00;99.90;;;;;;5133355;27;20034;-71
2023/08/06 11:05:08;;;;;;;4.50;2.42;;;18.00;99.90;;;;;;5133489;27;20052;-71
2023/08/06 11:07:34;;;;;;;3.25;2.22;;;17.90;99.90;;;;;;5133322;27;20020;-72
2023/08/06 11:10:03;;;;;;;2.40;1.83;;;17.90;99.90;;;;;;5133386;27;20165;-71
2023/08/06 11:12:29;;;;;;;3.70;2.38;;;17.90;99.90;;;;;;5133595;27;20023;-71
2023/08/06 11:14:55;;;;;;;3.63;2.40;;;17.90;99.90;;;;;;5133420;27;20031;-71
2023/08/06 11:17:21;;;;;;;2.08;1.90;;;17.90;99.90;;;;;;5133504;28;20387;-71
2023/08/06 11:19:47;;;;;;;3.45;2.13;;;17.90;99.90;;;;;;5133265;28;20035;-71
2023/08/06 11:22:14;;;;;;;3.42;1.95;;;17.80;99.90;;;;;;5133678;28;20031;-70
2023/08/06 11:24:40;;;;;;;3.38;2.15;;;17.80;99.90;;;;;;5133260;28;20458;-71
2023/08/06 11:27:13;;;;;;;2.33;2.05;;;17.70;99.90;;;;;;5115181;28;20023;-70
2023/08/06 11:29:42;;;;;;;2.28;1.95;;;17.70;99.90;;;;;;5133177;28;20114;-71
2023/08/06 11:32:08;;;;;;;4.22;2.13;;;17.70;99.90;;;;;;5133446;28;20035;-71
2023/08/06 11:34:35;;;;;;;2.50;2.20;;;17.60;99.90;;;;;;5133043;28;20038;-71
2023/08/06 11:37:03;;;;;;;3.53;2.17;;;17.60;99.90;;;;;;5133841;28;20023;-71
2023/08/06 11:39:28;;;;;;;2.22;2.03;;;17.60;99.90;;;;;;5133113;28;20019;-71
2023/08/06 11:41:54;;;;;;;2.63;1.95;;;17.50;99.90;;;;;;5114752;28;20027;-71
2023/08/06 11:44:20;;;;;;;2.85;2.30;;;17.60;99.90;;;;;;5133386;28;20051;-71
2023/08/06 11:46:53;;;;;;;2.40;1.95;;;17.60;99.90;;;;;;5133024;28;20084;-71
2023/08/06 11:49:24;;;;;;;2.33;2.10;;;17.60;99.90;;;;;;5133064;28;20437;-71
2023/08/06 11:51:49;;;;;;;3.78;2.50;;;17.60;99.90;;;;;;5132982;28;20353;-71
2023/08/06 11:54:15;;;;;;;3.60;2.00;;;17.50;99.90;;;;;;5133105;28;20038;-71
2023/08/06 11:56:41;;;;;;;2.78;2.05;;;17.50;99.90;;;;;;5133807;28;20352;-71
2023/08/06 11:59:08;;;;;;;6.00;2.25;;;17.50;99.90;;;;;;5135241;28;20581;-71
2023/08/06 12:01:34;;;;;;;3.05;2.33;;;17.40;99.90;;;;;;5136553;27;20035;-71
2023/08/06 12:04:00;;;;;;;4.20;2.42;;;17.30;99.90;;;;;;5118891;27;20052;-71
2023/08/06 12:06:28;;;;;;;2.58;2.10;;;17.30;99.90;;;;;;5137373;27;20023;-71
2023/08/06 12:08:54;;;;;;;2.88;2.40;;;17.20;99.90;;;;;;5137918;27;20023;-71
2023/08/06 12:11:21;;;;;;;3.15;2.42;;;17.20;99.90;;;;;;5137442;27;20038;-70
2023/08/06 12:13:51;;;;;;;7.50;2.53;;;17.20;99.90;;;;;;5132947;27;20039;-70
2023/08/06 12:16:18;;;;;;;3.50;2.50;;;17.20;99.90;;;;;;5136905;27;20044;-70
2023/08/06 12:18:44;;;;;;;3.33;2.45;;;17.20;99.90;;;;;;5136145;27;20532;-70
2023/08/06 12:21:10;;;;;;;3.67;2.60;;;17.20;99.90;;;;;;5136788;27;20043;-70
2023/08/06 12:23:36;;;;;;;3.33;2.78;;;17.20;99.90;;;;;;5136213;27;20442;-70
2023/08/06 12:26:01;;;;;;;2.65;2.25;;;17.20;99.90;;;;;;5136825;27;20360;-70
2023/08/06 12:28:27;;;;;;;3.47;2.28;;;17.20;99.90;;;;;;5136706;27;20031;-70
2023/08/06 12:30:55;;;;;;;3.03;2.47;;;17.20;99.90;;;;;;5135909;27;20103;-71
2023/08/06 12:33:20;;;;;;;3.50;2.65;;;17.30;99.90;;;;;;5136718;27;20084;-71
2023/08/06 12:35:46;;;;;;;6.13;2.40;;;17.30;99.90;;;;;;5135967;27;20045;-70
2023/08/06 12:38:13;;;;;;;4.20;2.55;;;17.30;99.90;;;;;;5136659;27;20110;-70
2023/08/06 12:40:39;;;;;;;4.78;2.65;;;17.30;99.90;;;;;;5136011;27;20031;-70
2023/08/06 12:43:04;;;;;;;3.13;1.95;;;17.30;99.90;;;;;;5136188;27;20027;-70
2023/08/06 12:45:30;;;;;;;4.72;2.67;;;17.30;99.90;;;;;;5136342;27;20342;-70
2023/08/06 12:47:56;;;;;;;4.10;2.67;;;17.40;99.90;;;;;;5117321;27;20019;-71